Time;durP1;ratioP1;P1;durP2;ratioP2;P2;SDS_P1;SDS_P2;PMS_P1;PMS_P2;Temp;Humidity;BMP_temperature;BMP_pressure;BME280_temperature;BME280_humidity;BME280_pressure;Samples;Min_cycle;Max_cycle;Signal;HPM_P1;HPM_P2
2022/10/04 00:01:59;;;;;;;5.18;3.85;;;10.10;99.90;;;;;;4971253;28;20034;-74
2022/10/04 00:04:41;;;;;;;6.82;4.60;;;10.00;99.90;;;;;;4971246;28;20029;-73
2022/10/04 00:07:17;;;;;;;4.80;3.38;;;9.90;99.90;;;;;;4970938;28;20045;-74
2022/10/04 00:09:56;;;;;;;6.03;4.22;;;9.90;99.90;;;;;;4971160;28;20057;-74
2022/10/04 00:12:21;;;;;;;11.77;7.10;;;9.80;99.90;;;;;;4971321;28;20023;-75
2022/10/04 00:14:49;;;;;;;15.73;6.20;;;9.60;99.90;;;;;;4970791;28;20057;-74
2022/10/04 00:17:25;;;;;;;13.93;6.28;;;9.50;99.90;;;;;;4969723;28;20058;-74
2022/10/04 00:19:53;;;;;;;10.23;3.28;;;9.50;99.90;;;;;;4975046;28;20027;-75
2022/10/04 00:22:26;;;;;;;9.32;5.32;;;9.40;99.90;;;;;;4974876;28;20034;-75
2022/10/04 00:25:08;;;;;;;7.53;5.30;;;9.40;99.90;;;;;;4977089;28;20043;-75
2022/10/04 00:27:38;;;;;;;6.20;3.35;;;9.40;99.90;;;;;;4976223;28;20423;-76
2022/10/04 00:30:04;;;;;;;13.30;4.82;;;9.40;99.90;;;;;;4977099;28;20019;-75
2022/10/04 00:32:41;;;;;;;4.45;3.45;;;9.40;99.90;;;;;;4974725;28;20465;-74
2022/10/04 00:35:27;;;;;;;9.07;5.43;;;9.40;99.90;;;;;;4969904;28;20030;-74
2022/10/04 00:37:57;;;;;;;15.15;4.03;;;9.50;99.90;;;;;;4970666;28;20035;-75
2022/10/04 00:40:30;;;;;;;7.63;3.63;;;9.50;99.90;;;;;;4971465;28;20357;-74
2022/10/04 00:43:03;;;;;;;4.38;3.22;;;9.50;99.90;;;;;;4970796;28;20030;-74
2022/10/04 00:45:45;;;;;;;6.13;3.78;;;9.50;99.90;;;;;;4970593;28;20035;-74
2022/10/04 00:48:27;;;;;;;14.65;4.60;;;9.70;99.90;;;;;;4970928;28;20114;-74
2022/10/04 00:51:05;;;;;;;6.10;3.50;;;9.60;99.90;;;;;;4970736;28;20434;-74
2022/10/04 00:53:50;;;;;;;8.20;4.28;;;9.60;99.90;;;;;;4970521;28;20073;-75
2022/10/04 00:56:24;;;;;;;6.32;3.83;;;9.70;99.90;;;;;;4970629;28;20046;-76
2022/10/04 00:58:53;;;;;;;3.90;3.40;;;9.60;99.90;;;;;;4970790;28;20027;-74
2022/10/04 01:01:25;;;;;;;6.57;4.37;;;9.60;99.90;;;;;;4973253;28;20050;-75
2022/10/04 01:03:55;;;;;;;5.68;4.85;;;9.60;99.90;;;;;;4974337;28;20038;-73
2022/10/04 01:06:22;;;;;;;5.82;5.00;;;9.60;99.90;;;;;;4974234;28;20039;-74
2022/10/04 01:08:54;;;;;;;3.47;2.65;;;9.60;99.90;;;;;;4974144;28;20109;-74
2022/10/04 01:11:41;;;;;;;7.18;4.03;;;9.50;99.90;;;;;;4974192;28;20045;-74
2022/10/04 01:14:11;;;;;;;9.00;3.85;;;9.40;99.90;;;;;;4973694;28;20182;-75
2022/10/04 01:16:38;;;;;;;8.25;3.85;;;9.30;99.90;;;;;;4973971;28;20019;-75
2022/10/04 01:19:23;;;;;;;3.75;2.72;;;9.20;99.90;;;;;;4974370;28;20448;-74
2022/10/04 01:22:28;;;;;;;7.70;3.08;;;9.30;99.90;;;;;;4974266;28;20030;-74
2022/10/04 01:24:54;;;;;;;6.38;3.70;;;9.20;99.90;;;;;;4974094;28;20072;-74
2022/10/04 01:27:58;;;;;;;7.85;3.33;;;9.10;99.90;;;;;;4973838;28;20031;-73
2022/10/04 01:30:24;;;;;;;9.88;3.80;;;9.10;99.90;;;;;;4970759;28;20079;-74
2022/10/04 01:32:50;;;;;;;5.82;4.15;;;9.20;99.90;;;;;;4973202;28;20035;-74
2022/10/04 01:35:19;;;;;;;11.93;3.85;;;9.20;99.90;;;;;;4973864;28;20029;-74
2022/10/04 01:37:48;;;;;;;9.55;4.00;;;9.20;99.90;;;;;;4973860;28;20022;-75
2022/10/04 01:40:14;;;;;;;11.03;5.03;;;9.20;99.90;;;;;;4973899;28;20031;-74
2022/10/04 01:42:50;;;;;;;4.13;2.85;;;9.10;99.90;;;;;;4973921;28;20011;-74
2022/10/04 01:45:23;;;;;;;7.40;3.25;;;9.10;99.90;;;;;;4973612;28;20042;-74
2022/10/04 01:47:56;;;;;;;5.78;3.42;;;9.10;99.90;;;;;;4973561;28;20495;-74
2022/10/04 01:50:55;;;;;;;6.53;4.15;;;9.10;99.90;;;;;;4973580;28;20102;-74
2022/10/04 01:53:23;;;;;;;;;;;9.10;99.90;;;;;;4974246;28;20514;-75
2022/10/04 01:56:20;;;;;;;6.45;3.28;;;9.00;99.90;;;;;;4973446;28;20422;-75
2022/10/04 01:58:50;;;;;;;13.15;4.35;;;9.00;99.90;;;;;;4972846;28;20065;-74
2022/10/04 02:01:30;;;;;;;6.28;3.75;;;8.90;99.90;;;;;;4973484;28;20019;-75
2022/10/04 02:03:58;;;;;;;5.68;3.08;;;8.90;99.90;;;;;;4973610;28;20082;-74
2022/10/04 02:06:24;;;;;;;12.23;3.85;;;8.80;99.90;;;;;;4972948;28;20389;-74
2022/10/04 02:08:56;;;;;;;5.22;3.60;;;8.80;99.90;;;;;;4973091;28;20491;-74
2022/10/04 02:11:26;;;;;;;5.82;3.60;;;8.70;99.90;;;;;;4972803;28;20492;-74
2022/10/04 02:13:54;;;;;;;4.90;3.28;;;8.60;99.90;;;;;;4973028;28;20447;-74
2022/10/04 02:16:21;;;;;;;4.43;2.95;;;8.60;99.90;;;;;;4973105;28;20085;-74
2022/10/04 02:18:50;;;;;;;4.93;2.70;;;8.60;99.90;;;;;;4973104;28;20035;-74
2022/10/04 02:21:17;;;;;;;6.78;3.33;;;8.70;99.90;;;;;;4973215;28;20101;-75
2022/10/04 02:23:44;;;;;;;10.70;2.67;;;8.70;99.90;;;;;;4972989;28;20076;-75
2022/10/04 02:26:11;;;;;;;4.22;3.00;;;8.70;99.90;;;;;;4972897;28;20062;-74
2022/10/04 02:28:37;;;;;;;6.20;3.22;;;8.80;99.90;;;;;;4972856;28;20650;-74
2022/10/04 02:33:51;;;;;;;5.93;3.17;;;8.70;99.90;;;;;;4972978;28;20038;-74
2022/10/04 02:36:23;;;;;;;2.27;2.17;;;8.60;99.90;;;;;;4972725;28;20023;-74
2022/10/04 02:39:02;;;;;;;3.58;3.28;;;8.60;99.90;;;;;;4972694;28;20011;-74
2022/10/04 02:41:34;;;;;;;4.90;3.30;;;8.60;99.90;;;;;;4972629;28;20031;-74
2022/10/04 02:44:03;;;;;;;4.00;2.65;;;8.60;99.90;;;;;;4972232;28;20058;-74
2022/10/04 02:47:07;;;;;;;4.05;2.70;;;8.60;99.90;;;;;;4972647;28;20030;-74
2022/10/04 02:49:41;;;;;;;5.38;3.25;;;8.60;99.90;;;;;;4971676;28;20109;-74
2022/10/04 02:52:12;;;;;;;9.57;4.05;;;8.50;99.90;;;;;;4972178;28;20030;-74
2022/10/04 02:54:51;;;;;;;8.30;3.08;;;8.40;99.90;;;;;;4972282;28;20029;-74
2022/10/04 02:57:20;;;;;;;9.48;2.83;;;8.50;99.90;;;;;;4972064;28;20023;-74
2022/10/04 02:59:46;;;;;;;10.77;4.22;;;8.50;99.90;;;;;;4971916;28;20118;-74
2022/10/04 03:02:27;;;;;;;6.53;4.13;;;8.70;99.90;;;;;;4972098;28;20054;-75
2022/10/04 03:04:59;;;;;;;5.75;3.28;;;8.70;99.90;;;;;;4971800;28;20022;-74
2022/10/04 03:07:25;;;;;;;8.18;3.10;;;8.70;99.90;;;;;;4971869;28;20047;-74
2022/10/04 03:09:52;;;;;;;10.15;3.53;;;8.70;99.90;;;;;;4972305;28;20030;-74
2022/10/04 03:12:18;;;;;;;7.40;3.88;;;8.70;99.90;;;;;;4970832;28;20062;-74
2022/10/04 03:14:44;;;;;;;7.88;4.15;;;8.60;99.90;;;;;;4971896;28;20037;-75
2022/10/04 03:17:13;;;;;;;5.35;3.33;;;8.60;99.90;;;;;;4972075;28;20077;-74
2022/10/04 03:19:39;;;;;;;5.20;4.77;;;8.60;99.90;;;;;;4970685;28;20391;-75
2022/10/04 03:22:11;;;;;;;9.10;3.95;;;8.60;99.90;;;;;;4971764;28;20062;-76
2022/10/04 03:24:45;;;;;;;8.88;4.40;;;8.60;99.90;;;;;;4970848;28;20074;-75
2022/10/04 03:27:19;;;;;;;5.43;3.78;;;8.50;99.90;;;;;;4972188;28;20384;-75
2022/10/04 03:29:49;;;;;;;3.05;2.70;;;8.40;99.90;;;;;;4971591;28;20026;-75
2022/10/04 03:32:18;;;;;;;6.30;3.70;;;;;;;;;;4971632;28;20054;-75
2022/10/04 03:35:06;;;;;;;7.18;3.30;;;8.40;99.90;;;;;;4970597;28;20694;-75
2022/10/04 03:37:36;;;;;;;11.48;2.95;;;8.30;99.90;;;;;;4971400;28;20022;-75
2022/10/04 03:40:07;;;;;;;3.38;2.88;;;8.30;99.90;;;;;;4971952;28;20053;-75
2022/10/04 03:42:35;;;;;;;6.80;4.00;;;8.20;99.90;;;;;;4970555;28;20019;-75
2022/10/04 03:45:10;;;;;;;9.93;5.28;;;8.10;99.90;;;;;;4971347;28;20054;-74
2022/10/04 03:47:39;;;;;;;6.65;2.40;;;8.10;99.90;;;;;;4971908;28;20547;-75
2022/10/04 03:50:24;;;;;;;3.85;2.30;;;8.00;99.90;;;;;;4970161;28;20039;-74
2022/10/04 03:52:57;;;;;;;7.32;4.15;;;8.00;99.90;;;;;;4971882;28;20027;-74
2022/10/04 03:55:30;;;;;;;2.75;2.25;;;8.00;99.90;;;;;;4971243;28;20439;-75
2022/10/04 03:57:57;;;;;;;5.55;3.00;;;8.00;99.90;;;;;;4971325;28;20027;-74
2022/10/04 04:00:23;;;;;;;6.32;2.65;;;8.10;99.90;;;;;;4971288;28;20018;-74
2022/10/04 04:02:54;;;;;;;2.22;1.90;;;8.10;99.90;;;;;;4970957;28;20031;-73
2022/10/04 04:05:20;;;;;;;3.92;3.50;;;8.10;99.90;;;;;;4970069;28;20094;-74
2022/10/04 04:08:03;;;;;;;2.53;1.73;;;8.10;99.90;;;;;;4970585;28;20117;-76
2022/10/04 04:10:32;;;;;;;3.45;2.38;;;8.20;99.90;;;;;;4970367;28;20693;-75
2022/10/04 04:13:46;;;;;;;4.53;2.30;;;8.10;99.90;;;;;;4971182;28;20027;-74
2022/10/04 04:16:13;;;;;;;12.70;3.72;;;8.00;99.90;;;;;;4974052;28;20046;-74
2022/10/04 04:18:42;;;;;;;5.93;2.22;;;7.90;99.90;;;;;;4971235;28;20472;-75
2022/10/04 04:21:11;;;;;;;3.42;2.33;;;8.00;99.90;;;;;;4985926;28;20396;-75
2022/10/04 04:23:49;;;;;;;8.00;3.55;;;8.00;99.90;;;;;;4971211;28;20464;-75
2022/10/04 04:26:42;;;;;;;6.18;3.00;;;8.00;99.90;;;;;;4971257;28;20034;-75
2022/10/04 04:29:24;;;;;;;4.80;2.03;;;7.90;99.90;;;;;;4968847;28;20058;-75
2022/10/04 04:32:02;;;;;;;8.43;4.03;;;7.90;99.90;;;;;;4971585;28;20031;-73
2022/10/04 04:34:31;;;;;;;3.78;2.90;;;7.90;99.90;;;;;;4972085;28;20300;-74
2022/10/04 04:36:59;;;;;;;1.77;1.58;;;7.80;99.90;;;;;;4974821;28;20031;-75
2022/10/04 04:39:44;;;;;;;7.65;2.85;;;7.80;99.90;;;;;;4975120;28;20102;-75
2022/10/04 04:42:09;;;;;;;5.15;3.42;;;7.90;99.90;;;;;;4989889;28;20388;-75
2022/10/04 04:44:50;;;;;;;4.97;3.72;;;7.80;99.90;;;;;;4974604;28;20023;-75
2022/10/04 04:47:43;;;;;;;10.98;5.18;;;7.80;99.90;;;;;;4974764;28;20031;-76
2022/10/04 04:50:30;;;;;;;4.68;4.18;;;7.80;99.90;;;;;;4974864;28;20030;-74
2022/10/04 04:53:07;;;;;;;4.95;2.67;;;7.80;99.90;;;;;;4974904;28;20023;-74
2022/10/04 04:55:47;;;;;;;17.27;4.53;;;7.90;99.90;;;;;;4975355;28;20027;-75
2022/10/04 04:58:24;;;;;;;3.22;2.92;;;7.80;99.90;;;;;;4974097;28;20031;-77
2022/10/04 05:01:17;;;;;;;6.85;3.92;;;7.80;99.90;;;;;;4972875;28;20022;-76
2022/10/04 05:03:43;;;;;;;3.50;2.22;;;7.80;99.90;;;;;;4973748;28;20030;-75
2022/10/04 05:06:26;;;;;;;3.88;3.08;;;7.90;99.90;;;;;;4973862;28;20488;-76
2022/10/04 05:08:52;;;;;;;6.95;2.47;;;7.90;99.90;;;;;;4974029;28;20319;-76
2022/10/04 05:11:20;;;;;;;16.58;5.82;;;7.90;99.90;;;;;;4974062;28;20369;-77
2022/10/04 05:13:55;;;;;;;3.75;2.63;;;7.90;99.90;;;;;;4972657;28;20027;-74
2022/10/04 05:16:41;;;;;;;5.47;2.85;;;7.90;99.90;;;;;;4974342;28;20015;-75
2022/10/04 05:19:18;;;;;;;4.32;2.65;;;7.90;99.90;;;;;;4974092;28;20558;-75
2022/10/04 05:21:46;;;;;;;5.53;3.00;;;;;;;;;;4974395;28;20365;-74
2022/10/04 05:24:23;;;;;;;5.85;3.53;;;7.90;99.90;;;;;;4974236;28;20026;-76
2022/10/04 05:26:52;;;;;;;3.33;3.00;;;7.90;99.90;;;;;;4973818;28;20562;-75
2022/10/04 05:29:21;;;;;;;6.32;3.72;;;7.90;99.90;;;;;;4973900;28;20035;-75
2022/10/04 05:31:51;;;;;;;3.50;2.80;;;7.90;99.90;;;;;;4972964;28;20065;-75
2022/10/04 05:34:26;;;;;;;5.65;2.80;;;7.80;99.90;;;;;;4972737;28;20038;-76
2022/10/04 05:37:18;;;;;;;2.67;2.45;;;7.80;99.90;;;;;;4974041;28;20027;-76
2022/10/04 05:40:01;;;;;;;2.30;1.83;;;7.90;99.90;;;;;;4974210;28;20449;-76
2022/10/04 05:42:43;;;;;;;2.88;2.10;;;7.90;99.90;;;;;;4973329;28;20027;-76
2022/10/04 05:45:19;;;;;;;3.95;3.05;;;7.90;99.90;;;;;;4973552;28;20073;-75
2022/10/04 05:47:49;;;;;;;4.93;2.45;;;8.00;99.90;;;;;;4976332;28;20035;-75
2022/10/04 05:50:32;;;;;;;2.50;1.52;;;8.10;99.90;;;;;;4973997;28;20029;-75
2022/10/04 05:53:14;;;;;;;4.22;2.65;;;8.00;99.90;;;;;;4974027;28;20034;-75
2022/10/04 05:55:58;;;;;;;3.72;1.90;;;8.10;99.90;;;;;;4973788;28;20018;-76
2022/10/04 05:59:01;;;;;;;3.97;2.08;;;8.00;99.90;;;;;;4972440;28;20035;-76
2022/10/04 06:02:09;;;;;;;4.40;2.15;;;8.10;99.90;;;;;;4972016;28;20034;-75
2022/10/04 06:05:05;;;;;;;1.65;1.55;;;8.20;99.90;;;;;;4987787;28;20035;-76
2022/10/04 06:07:52;;;;;;;3.28;1.58;;;8.30;99.90;;;;;;4973457;28;20043;-76
2022/10/04 06:10:48;;;;;;;2.72;1.75;;;8.40;99.90;;;;;;4973404;28;20019;-76
2022/10/04 06:13:51;;;;;;;9.38;1.70;;;8.40;99.90;;;;;;4973120;28;20033;-76
2022/10/04 06:16:22;;;;;;;6.20;2.58;;;8.50;99.90;;;;;;4971953;28;20503;-76
2022/10/04 06:19:13;;;;;;;4.03;1.83;;;8.60;99.90;;;;;;4973229;28;20081;-76
2022/10/04 06:22:22;;;;;;;7.88;3.38;;;8.60;99.90;;;;;;4973332;28;20050;-75
2022/10/04 06:25:11;;;;;;;2.58;2.08;;;8.60;99.90;;;;;;4985832;28;20113;-75
2022/10/04 06:27:42;;;;;;;3.63;2.10;;;8.70;99.90;;;;;;4973113;28;20193;-75
2022/10/04 06:30:16;;;;;;;2.67;2.28;;;8.70;99.90;;;;;;4972938;28;20027;-76
2022/10/04 06:32:56;;;;;;;20.27;9.05;;;8.80;99.90;;;;;;4971470;28;20045;-76
2022/10/04 06:35:41;;;;;;;10.90;7.68;;;8.90;99.90;;;;;;4972838;28;20019;-75
2022/10/04 06:38:30;;;;;;;14.65;5.88;;;8.90;99.90;;;;;;4972831;28;20439;-76
2022/10/04 06:41:00;;;;;;;8.20;4.82;;;9.00;99.90;;;;;;4973036;28;20019;-75
2022/10/04 06:43:47;;;;;;;6.55;4.55;;;9.00;99.90;;;;;;4971216;28;20117;-75
2022/10/04 06:46:28;;;;;;;5.38;2.58;;;9.10;99.90;;;;;;4972808;28;20206;-77
2022/10/04 06:49:08;;;;;;;10.82;4.40;;;9.10;99.90;;;;;;4972922;28;20038;-76
2022/10/04 06:51:59;;;;;;;7.80;5.25;;;9.10;99.90;;;;;;4972520;28;20023;-76
2022/10/04 06:55:08;;;;;;;8.98;5.60;;;9.10;99.90;;;;;;4972562;28;20468;-76
2022/10/04 06:57:58;;;;;;;5.20;4.17;;;9.30;99.90;;;;;;4970324;28;20149;-76
2022/10/04 07:00:26;;;;;;;7.38;3.92;;;9.30;99.90;;;;;;4964648;28;20082;-77
2022/10/04 07:02:57;;;;;;;4.03;2.67;;;9.40;99.90;;;;;;4971115;28;20487;-75
2022/10/04 07:05:46;;;;;;;2.58;2.15;;;9.40;99.90;;;;;;4970325;28;20444;-76
2022/10/04 07:08:32;;;;;;;4.30;1.92;;;9.50;99.90;;;;;;4985908;28;20042;-76
2022/10/04 07:11:25;;;;;;;6.35;1.92;;;9.50;99.90;;;;;;4971540;28;20484;-76
2022/10/04 07:14:03;;;;;;;3.92;2.42;;;9.60;99.90;;;;;;4969752;28;20396;-76
2022/10/04 07:16:39;;;;;;;14.05;2.33;;;9.70;99.90;;;;;;4971260;28;20023;-75
2022/10/04 07:19:20;;;;;;;3.42;2.40;;;9.70;99.90;;;;;;4966045;28;20027;-75
2022/10/04 07:22:11;;;;;;;3.47;2.20;;;9.70;99.90;;;;;;4970671;28;20550;-75
2022/10/04 07:24:56;;;;;;;5.38;2.13;;;9.40;99.90;;;;;;4969168;28;20484;-75
2022/10/04 07:27:33;;;;;;;5.57;2.28;;;9.40;99.90;;;;;;4969170;28;20035;-75
2022/10/04 07:30:06;;;;;;;5.20;2.58;;;9.40;99.90;;;;;;4968542;28;20398;-75
2022/10/04 07:32:37;;;;;;;24.95;2.72;;;9.50;99.90;;;;;;4968106;28;20504;-75
2022/10/04 07:35:11;;;;;;;6.30;2.75;;;9.60;99.90;;;;;;4968641;28;20019;-75
2022/10/04 07:38:14;;;;;;;4.10;2.63;;;9.70;99.90;;;;;;4968606;28;20031;-75
2022/10/04 07:40:57;;;;;;;5.85;2.75;;;9.70;99.90;;;;;;4967539;28;20039;-75
2022/10/04 07:43:28;;;;;;;7.40;3.67;;;9.90;99.90;;;;;;4968973;28;20045;-75
2022/10/04 07:46:11;;;;;;;16.38;2.53;;;9.90;99.90;;;;;;4969339;28;20079;-75
2022/10/04 07:48:40;;;;;;;6.80;3.45;;;9.80;99.90;;;;;;4968684;28;20034;-75
2022/10/04 07:51:15;;;;;;;5.63;3.53;;;9.90;99.90;;;;;;4968458;28;20418;-75
2022/10/04 07:53:46;;;;;;;6.75;3.75;;;10.00;99.90;;;;;;4969277;28;20058;-75
2022/10/04 07:56:18;;;;;;;3.25;2.53;;;10.20;99.90;;;;;;4967731;28;20027;-75
2022/10/04 07:59:16;;;;;;;4.10;2.20;;;10.40;99.90;;;;;;4967974;28;20106;-75
2022/10/04 08:02:15;;;;;;;6.32;3.72;;;10.70;99.90;;;;;;4976570;28;20062;-76
2022/10/04 08:04:48;;;;;;;4.97;3.00;;;11.00;99.90;;;;;;4968642;28;20071;-75
2022/10/04 08:07:32;;;;;;;4.35;2.58;;;11.20;99.90;;;;;;4968365;28;20050;-75
2022/10/04 08:10:27;;;;;;;5.80;3.08;;;11.40;99.90;;;;;;4967761;28;20421;-75
2022/10/04 08:12:56;;;;;;;2.60;2.08;;;11.60;99.90;;;;;;4967602;28;20121;-75
2022/10/04 08:15:36;;;;;;;4.65;3.30;;;10.90;99.90;;;;;;4967236;28;20033;-74
2022/10/04 08:18:18;;;;;;;2.67;2.05;;;11.70;99.90;;;;;;4968109;28;20034;-74
2022/10/04 08:21:22;;;;;;;3.85;2.33;;;11.70;99.90;;;;;;4967676;28;20491;-74
2022/10/04 08:24:31;;;;;;;5.13;3.08;;;11.80;99.90;;;;;;4967286;28;20045;-75
2022/10/04 08:27:07;;;;;;;7.75;2.78;;;12.30;99.90;;;;;;4966658;28;21182;-75
2022/10/04 08:30:05;;;;;;;5.63;2.70;;;12.50;99.90;;;;;;4967309;28;20027;-74
2022/10/04 08:32:40;;;;;;;2.25;1.77;;;12.60;99.90;;;;;;4967307;28;20090;-75
2022/10/04 08:35:18;;;;;;;3.10;1.67;;;12.80;99.90;;;;;;4967627;28;20673;-75
2022/10/04 08:38:22;;;;;;;1.88;1.40;;;13.10;99.90;;;;;;4967664;28;20035;-75
2022/10/04 08:41:06;;;;;;;2.72;1.67;;;13.30;99.90;;;;;;4967656;28;20126;-74
2022/10/04 08:44:09;;;;;;;2.60;1.45;;;13.40;99.90;;;;;;4967511;28;20458;-75
2022/10/04 08:47:12;;;;;;;3.55;1.95;;;13.30;99.90;;;;;;4967431;28;20038;-75
2022/10/04 08:49:56;;;;;;;5.78;2.33;;;13.20;99.90;;;;;;4967983;28;20263;-75
2022/10/04 08:52:40;;;;;;;2.22;2.03;;;13.30;99.90;;;;;;4967763;28;20026;-76
2022/10/04 08:55:28;;;;;;;3.38;2.08;;;13.20;99.90;;;;;;4967342;28;20507;-76
2022/10/04 08:58:20;;;;;;;2.05;1.58;;;13.20;99.90;;;;;;4969199;28;20105;-76
2022/10/04 09:01:17;;;;;;;5.57;2.53;;;10.60;99.90;;;;;;4981756;28;20063;-76
2022/10/04 09:04:02;;;;;;;1.65;1.38;;;13.10;99.90;;;;;;4967462;28;20074;-76
2022/10/04 09:06:43;;;;;;;3.05;1.95;;;13.00;99.90;;;;;;4967285;28;20046;-76
2022/10/04 09:09:38;;;;;;;1.58;1.50;;;13.00;99.90;;;;;;4965827;28;20039;-76
2022/10/04 09:12:15;;;;;;;3.25;2.60;;;13.10;99.90;;;;;;4967418;28;20027;-76
2022/10/04 09:15:12;;;;;;;6.22;2.05;;;13.00;99.90;;;;;;4963083;28;20110;-76
2022/10/04 09:17:54;;;;;;;6.15;2.15;;;13.00;99.90;;;;;;4947868;28;20093;-75
2022/10/04 09:20:34;;;;;;;2.25;1.92;;;13.10;99.90;;;;;;4948048;28;20027;-76
2022/10/04 09:23:10;;;;;;;1.70;1.38;;;13.40;99.90;;;;;;4954566;28;20289;-76
2022/10/04 09:25:47;;;;;;;2.75;2.10;;;13.30;99.90;;;;;;4957919;28;20051;-76
2022/10/04 09:28:38;;;;;;;3.72;2.22;;;13.40;99.90;;;;;;4957386;28;20046;-77
2022/10/04 09:31:39;;;;;;;3.20;1.42;;;13.60;99.90;;;;;;4955380;28;20035;-76
2022/10/04 09:34:41;;;;;;;2.22;1.65;;;13.80;99.90;;;;;;4972877;28;20031;-75
2022/10/04 09:37:46;;;;;;;1.55;1.45;;;14.00;99.90;;;;;;4951698;28;20031;-76
2022/10/04 09:40:37;;;;;;;3.08;2.03;;;14.10;99.90;;;;;;4949537;28;20408;-76
2022/10/04 09:43:24;;;;;;;5.15;2.33;;;14.20;99.90;;;;;;4951510;28;20057;-76
2022/10/04 09:45:50;;;;;;;1.58;1.48;;;14.20;99.90;;;;;;4953304;28;20028;-76
2022/10/04 09:48:41;;;;;;;2.35;1.88;;;14.40;99.90;;;;;;4949770;28;20051;-77
2022/10/04 09:51:19;;;;;;;8.60;1.63;;;14.60;99.90;;;;;;4952153;28;20078;-76
2022/10/04 09:54:14;;;;;;;3.38;1.75;;;14.60;99.90;;;;;;4950943;28;20068;-76
2022/10/04 09:56:55;;;;;;;2.13;1.92;;;14.50;99.90;;;;;;4950702;28;20038;-75
2022/10/04 09:59:26;;;;;;;1.48;1.23;;;14.40;99.90;;;;;;4952965;28;20247;-75
2022/10/04 10:02:33;;;;;;;2.08;1.88;;;14.40;99.90;;;;;;4950043;28;20680;-76
2022/10/04 10:05:32;;;;;;;3.13;2.40;;;14.40;99.90;;;;;;4949017;29;20029;-74
2022/10/04 10:08:24;;;;;;;2.45;1.50;;;14.80;99.90;;;;;;4948965;28;20035;-76
2022/10/04 10:14:29;;;;;;;1.77;1.42;;;14.90;99.90;;;;;;4963698;28;20054;-76
2022/10/04 10:17:26;;;;;;;10.95;1.40;;;14.90;99.90;;;;;;4968191;28;20412;-75
2022/10/04 10:20:33;;;;;;;1.90;1.35;;;14.70;99.90;;;;;;4968154;28;20076;-74
2022/10/04 10:23:11;;;;;;;3.63;2.40;;;14.70;99.90;;;;;;4968305;28;20030;-75
2022/10/04 10:25:52;;;;;;;3.20;1.45;;;14.80;99.90;;;;;;4968261;28;20196;-76
2022/10/04 10:28:32;;;;;;;1.80;1.08;;;14.90;99.90;;;;;;4968838;28;20034;-75
2022/10/04 10:31:19;;;;;;;2.13;1.10;;;15.10;99.90;;;;;;4968276;28;20027;-76
2022/10/04 10:34:17;;;;;;;2.40;1.15;;;15.00;99.90;;;;;;4967519;28;20027;-76
2022/10/04 10:37:29;;;;;;;2.83;2.10;;;14.90;99.90;;;;;;4969084;28;20027;-76
2022/10/04 10:39:58;;;;;;;4.07;1.98;;;14.70;99.90;;;;;;4966038;28;20651;-74
2022/10/04 10:42:26;;;;;;;2.70;1.77;;;14.60;99.90;;;;;;4965888;28;20085;-74
2022/10/04 10:45:16;;;;;;;3.33;2.08;;;14.70;99.90;;;;;;4967735;28;20037;-74
2022/10/04 10:47:52;;;;;;;2.05;1.30;;;14.70;99.90;;;;;;4969784;28;20046;-74
2022/10/04 10:50:57;;;;;;;3.05;1.30;;;14.80;99.90;;;;;;4969352;28;20097;-74
2022/10/04 10:54:06;;;;;;;2.92;1.50;;;14.80;99.90;;;;;;4969116;28;20267;-74
2022/10/04 10:56:46;;;;;;;1.55;1.45;;;14.80;99.90;;;;;;4969511;28;20496;-74
2022/10/04 10:59:30;;;;;;;1.40;1.30;;;14.90;99.90;;;;;;4968560;28;20023;-74
2022/10/04 11:02:17;;;;;;;2.70;1.25;;;15.00;99.90;;;;;;4969780;28;20023;-75
2022/10/04 11:05:10;;;;;;;1.55;1.45;;;15.20;99.90;;;;;;4968812;28;20023;-73
2022/10/04 11:08:28;;;;;;;1.65;1.40;;;15.30;99.90;;;;;;4968814;28;20061;-74
2022/10/04 11:11:27;;;;;;;3.53;1.73;;;15.40;99.90;;;;;;4965506;28;20365;-74
2022/10/04 11:14:27;;;;;;;1.58;1.50;;;15.60;99.90;;;;;;4969129;28;20023;-74
2022/10/04 11:17:30;;;;;;;2.38;1.15;;;15.60;99.90;;;;;;4973976;28;20392;-74
2022/10/04 11:20:24;;;;;;;3.80;1.45;;;15.70;99.90;;;;;;4968496;28;20483;-74
2022/10/04 11:23:26;;;;;;;4.28;1.35;;;15.90;99.90;;;;;;4969312;28;20035;-74
2022/10/04 11:26:14;;;;;;;5.88;1.20;;;15.90;99.90;;;;;;4967154;28;20031;-74
2022/10/04 11:29:09;;;;;;;1.45;1.38;;;16.00;99.90;;;;;;4966269;28;20035;-76
2022/10/04 11:31:47;;;;;;;1.50;1.23;;;16.10;99.90;;;;;;4968106;28;20034;-74
2022/10/04 11:34:31;;;;;;;2.03;1.52;;;16.20;99.90;;;;;;4968484;28;20033;-74
2022/10/04 11:37:42;;;;;;;1.20;1.13;;;16.30;99.90;;;;;;4968494;28;20022;-75
2022/10/04 11:40:17;;;;;;;1.95;1.85;;;16.40;99.90;;;;;;4967294;28;20046;-75
2022/10/04 11:43:18;;;;;;;7.47;1.55;;;16.50;99.90;;;;;;4968251;28;20098;-75
2022/10/04 11:45:54;;;;;;;2.33;1.92;;;16.70;99.90;;;;;;4966821;28;20045;-73
2022/10/04 11:48:59;;;;;;;1.10;1.10;;;16.70;99.90;;;;;;4966963;28;20673;-74
2022/10/04 11:51:39;;;;;;;1.10;1.08;;;16.70;99.90;;;;;;4968465;28;20105;-75
2022/10/04 11:54:20;;;;;;;1.10;1.00;;;16.70;99.90;;;;;;4968502;28;20383;-74
2022/10/04 11:57:10;;;;;;;1.35;1.25;;;16.90;99.90;;;;;;4968117;28;20113;-75
2022/10/04 11:59:48;;;;;;;1.17;1.00;;;17.00;99.90;;;;;;4968144;28;20476;-74
2022/10/04 12:02:32;;;;;;;1.00;0.90;;;17.10;99.90;;;;;;4968097;28;20237;-75
2022/10/04 12:05:32;;;;;;;1.58;0.82;;;17.60;99.90;;;;;;4968031;28;20105;-75
2022/10/04 12:08:51;;;;;;;3.92;0.77;;;18.10;99.90;;;;;;4967802;28;20047;-75
2022/10/04 12:15:09;;;;;;;0.55;0.50;;;20.10;99.90;;;;;;4948370;28;20085;-75
2022/10/04 12:17:56;;;;;;;2.42;0.68;;;21.70;92.30;;;;;;4948132;28;20066;-75
2022/10/04 12:20:27;;;;;;;7.97;0.90;;;22.40;80.00;;;;;;4948438;28;20033;-76
2022/10/04 12:23:11;;;;;;;3.55;1.00;;;22.50;72.50;;;;;;4962856;28;20027;-76
2022/10/04 12:25:57;;;;;;;0.88;0.60;;;22.90;70.60;;;;;;4948060;29;20035;-77
2022/10/04 12:29:04;;;;;;;1.65;0.80;;;23.90;68.80;;;;;;4947789;28;20035;-76
2022/10/04 12:31:40;;;;;;;0.70;0.70;;;25.60;65.50;;;;;;4962215;28;20038;-76
2022/10/04 12:34:13;;;;;;;0.93;0.85;;;27.10;61.90;;;;;;4963078;28;20027;-76
2022/10/04 12:37:12;;;;;;;0.25;0.25;;;27.80;57.40;;;;;;4962766;28;20206;-76
2022/10/04 12:40:09;;;;;;;4.18;0.60;;;28.20;57.70;;;;;;4947731;28;20029;-78
2022/10/04 12:42:42;;;;;;;1.05;0.75;;;28.00;54.70;;;;;;4948661;28;20428;-77
2022/10/04 12:45:47;;;;;;;0.90;0.80;;;27.50;56.90;;;;;;4947957;28;20020;-75
2022/10/04 12:48:27;;;;;;;1.80;0.95;;;27.40;57.60;;;;;;4962641;28;20035;-76
2022/10/04 12:51:25;;;;;;;0.63;0.63;;;28.00;57.10;;;;;;4962667;28;20138;-77
2022/10/04 12:53:57;;;;;;;3.70;1.10;;;29.40;54.70;;;;;;4962230;28;20126;-77
2022/10/04 12:56:47;;;;;;;0.73;0.73;;;29.10;53.50;;;;;;4949332;28;20416;-75
2022/10/04 12:59:29;;;;;;;1.17;0.90;;;28.40;53.60;;;;;;4951572;28;20034;-74
2022/10/04 13:02:00;;;;;;;0.70;0.70;;;27.90;54.30;;;;;;4951228;28;20403;-74
2022/10/04 13:04:35;;;;;;;0.95;0.70;;;27.40;55.90;;;;;;4951964;28;20037;-75
2022/10/04 13:07:30;;;;;;;1.65;0.75;;;27.00;55.40;;;;;;4966184;28;20047;-75
2022/10/04 13:10:07;;;;;;;2.05;1.15;;;26.40;57.40;;;;;;4956625;28;20070;-75
2022/10/04 13:13:09;;;;;;;1.17;1.02;;;25.90;57.20;;;;;;4969276;28;20474;-75
2022/10/04 13:16:01;;;;;;;0.88;0.88;;;25.70;58.10;;;;;;4970515;28;20113;-75
2022/10/04 13:18:45;;;;;;;0.70;0.70;;;25.60;58.50;;;;;;4971507;28;20027;-76
2022/10/04 13:21:22;;;;;;;1.38;0.90;;;25.80;58.90;;;;;;4969103;28;20027;-77
2022/10/04 13:24:27;;;;;;;0.65;0.65;;;26.00;58.50;;;;;;4970283;28;20058;-77
2022/10/04 13:27:08;;;;;;;2.92;0.80;;;26.50;57.40;;;;;;4970852;28;20031;-76
2022/10/04 13:29:52;;;;;;;1.95;0.50;;;27.30;56.50;;;;;;4968923;28;20109;-77
2022/10/04 13:32:27;;;;;;;0.80;0.68;;;27.80;56.10;;;;;;4970692;28;20019;-76
2022/10/04 13:35:35;;;;;;;0.63;0.63;;;27.60;57.50;;;;;;4969005;28;20054;-77
2022/10/04 13:38:38;;;;;;;1.25;1.00;;;27.10;56.60;;;;;;4968832;28;20299;-78
2022/10/04 13:41:30;;;;;;;1.35;1.25;;;27.70;55.40;;;;;;4968593;28;20570;-78
2022/10/04 13:44:00;;;;;;;3.60;0.80;;;28.00;55.80;;;;;;4984332;28;20050;-76
2022/10/04 13:46:44;;;;;;;5.50;1.08;;;28.00;54.60;;;;;;4969928;28;20019;-77
2022/10/04 13:49:45;;;;;;;1.17;0.80;;;27.60;55.80;;;;;;4968881;28;20038;-78
2022/10/04 13:58:57;;;;;;;0.98;0.47;;;27.10;56.50;;;;;;5005460;28;20427;-79
2022/10/04 14:01:39;;;;;;;1.00;1.00;;;26.90;57.70;;;;;;4987130;28;20046;-75
2022/10/04 14:04:32;;;;;;;1.08;0.98;;;27.00;56.50;;;;;;4968710;28;20126;-78
2022/10/04 14:07:51;;;;;;;0.57;0.57;;;26.80;57.30;;;;;;4968651;28;20043;-75
2022/10/04 14:10:42;;;;;;;0.68;0.60;;;26.90;57.10;;;;;;4947468;28;20038;-75
2022/10/04 14:13:26;;;;;;;0.98;0.55;;;27.20;57.00;;;;;;4979854;28;20422;-76
2022/10/04 14:16:23;;;;;;;9.30;0.85;;;27.20;56.50;;;;;;4965249;28;20038;-77
2022/10/04 14:19:08;;;;;;;1.10;0.70;;;27.50;58.00;;;;;;4950414;28;20028;-76
2022/10/04 14:21:49;;;;;;;0.95;0.60;;;27.40;55.40;;;;;;4950205;28;20035;-75
2022/10/04 14:24:15;;;;;;;0.73;0.52;;;27.20;56.50;;;;;;4948740;28;20057;-77
2022/10/04 14:27:00;;;;;;;1.38;0.68;;;27.10;56.60;;;;;;4950599;28;20028;-76